Time;durP1;ratioP1;P1;durP2;ratioP2;P2;SDS_P1;SDS_P2;PMS_P1;PMS_P2;Temp;Humidity;BMP_temperature;BMP_pressure;BME280_temperature;BME280_humidity;BME280_pressure;Samples;Min_cycle;Max_cycle;Signal;HPM_P1;HPM_P2
2022/01/27 00:03:50;;;;;;;38.80;16.37;;;;;;;-1.67;100.00;97429.69;10375316;28;20300;-60
2022/01/27 00:08:56;;;;;;;46.30;17.03;;;;;;;-1.74;100.00;97428.28;10376363;28;20197;-61
2022/01/27 00:14:00;;;;;;;47.70;16.40;;;;;;;-1.71;100.00;97433.28;10376482;28;20672;-60
2022/01/27 00:19:00;;;;;;;35.50;13.20;;;;;;;-1.68;100.00;97426.28;10375708;28;20568;-60
2022/01/27 00:24:01;;;;;;;52.20;17.13;;;;;;;-1.74;100.00;97423.16;10375498;28;20185;-60
2022/01/27 00:29:01;;;;;;;49.50;16.67;;;;;;;-1.69;100.00;97422.03;10376213;28;20193;-63
2022/01/27 00:34:04;;;;;;;34.63;11.93;;;;;;;-1.67;100.00;97409.13;10375439;28;20244;-62
2022/01/27 00:39:04;;;;;;;46.27;16.63;;;;;;;-1.59;100.00;97411.38;10374216;28;20244;-60
2022/01/27 00:44:05;;;;;;;40.30;14.20;;;;;;;-1.52;100.00;97405.91;10374511;28;20292;-61
2022/01/27 00:49:05;;;;;;;49.70;16.37;;;;;;;-1.75;100.00;97400.91;10374782;28;20225;-59
2022/01/27 00:54:16;;;;;;;53.10;18.77;;;;;;;-1.76;100.00;97394.09;10374478;28;20193;-62
2022/01/27 01:04:40;;;;;;;64.93;22.00;;;;;;;-1.78;100.00;97381.31;10373991;28;20189;-62
2022/01/27 01:10:54;;;;;;;57.70;18.30;;;;;;;-1.62;100.00;97378.97;10373898;28;20700;-60
2022/01/27 01:15:23;;;;;;;54.50;18.60;;;;;;;-1.73;100.00;97389.69;10373444;28;20207;-62
2022/01/27 01:20:43;;;;;;;55.97;19.73;;;;;;;-1.69;100.00;97385.25;10373129;28;20221;-60
2022/01/27 01:31:15;;;;;;;59.40;18.63;;;;;;;-1.67;100.00;97353.47;10373242;28;20209;-61
2022/01/27 01:36:27;;;;;;;55.93;18.00;;;;;;;-1.67;100.00;97357.75;10372811;28;20284;-63
2022/01/27 01:41:27;;;;;;;60.17;19.80;;;;;;;-1.69;100.00;97354.44;10371511;28;20687;-61
2022/01/27 01:46:27;;;;;;;47.13;15.27;;;;;;;-1.60;100.00;97337.81;10372578;28;20197;-61
2022/01/27 01:51:30;;;;;;;22.97;9.53;;;;;;;-1.58;100.00;97336.81;10372123;28;20247;-62
2022/01/27 01:56:30;;;;;;;59.97;21.33;;;;;;;-1.63;100.00;97321.59;10372361;28;20193;-59
2022/01/27 02:01:31;;;;;;;46.00;16.63;;;;;;;-1.62;100.00;97318.13;10371171;28;20229;-61
2022/01/27 02:06:38;;;;;;;40.50;15.47;;;;;;;-1.58;100.00;97318.84;10371685;28;20193;-60
2022/01/27 02:22:18;;;;;;;44.70;15.47;;;;;;;-1.52;100.00;97299.75;10370435;28;20221;-62
2022/01/27 02:27:18;;;;;;;49.50;18.87;;;;;;;-1.54;100.00;97281.00;10371554;28;20556;-61
2022/01/27 02:32:19;;;;;;;140.07;43.13;;;;;;;-1.49;100.00;97279.06;10370769;28;20215;-62
2022/01/27 02:37:19;;;;;;;39.07;13.27;;;;;;;-1.49;100.00;97282.47;10371368;28;20182;-62
2022/01/27 02:42:33;;;;;;;43.83;19.50;;;;;;;-1.49;100.00;97274.75;10370734;28;20259;-62
2022/01/27 02:47:34;;;;;;;38.23;14.70;;;;;;;-1.41;100.00;97274.41;10370623;28;20259;-62
2022/01/27 02:52:35;;;;;;;39.17;12.70;;;;;;;-1.35;100.00;97256.16;10370536;28;20331;-62
2022/01/27 02:57:35;;;;;;;37.37;14.30;;;;;;;-1.41;100.00;97253.03;10370346;28;20197;-60
2022/01/27 03:02:36;;;;;;;33.40;12.87;;;;;;;-1.34;100.00;97239.00;10373947;28;20217;-62
2022/01/27 03:07:36;;;;;;;42.03;13.90;;;;;;;-1.41;100.00;97215.31;10378336;28;20691;-61
2022/01/27 03:12:38;;;;;;;40.60;15.33;;;;;;;-1.48;100.00;97198.53;10377898;28;20220;-62
2022/01/27 03:17:41;;;;;;;33.47;11.63;;;;;;;-1.41;100.00;97189.59;10376944;28;20730;-62
2022/01/27 03:22:41;;;;;;;31.03;11.97;;;;;;;-1.41;100.00;97187.03;10377411;28;20229;-62
2022/01/27 03:27:46;;;;;;;35.63;13.40;;;;;;;-1.40;100.00;97187.88;10378015;28;20579;-62
2022/01/27 03:32:47;;;;;;;36.77;13.00;;;;;;;-1.45;100.00;97201.78;10377599;28;20201;-62
2022/01/27 03:37:48;;;;;;;28.93;10.57;;;;;;;-1.32;100.00;97190.94;10377600;28;20219;-62
2022/01/27 03:43:02;;;;;;;30.53;13.53;;;;;;;-1.38;100.00;97180.94;10377292;28;20225;-62
2022/01/27 03:48:03;;;;;;;32.53;10.97;;;;;;;-1.37;100.00;97173.16;10377381;28;20194;-61
2022/01/27 03:53:03;;;;;;;28.27;9.13;;;;;;;-1.33;100.00;97168.69;10376860;28;20225;-62
2022/01/27 03:58:04;;;;;;;26.77;10.90;;;;;;;-1.34;100.00;97146.50;10376682;28;20196;-62
2022/01/27 04:03:08;;;;;;;26.03;10.60;;;;;;;-1.39;100.00;97161.28;10376311;28;20730;-61
2022/01/27 04:08:10;;;;;;;27.90;10.73;;;;;;;-1.40;100.00;97177.63;10376220;28;20197;-62
2022/01/27 04:13:10;;;;;;;30.97;12.13;;;;;;;-1.40;100.00;97157.88;10373659;28;20213;-61
2022/01/27 04:18:11;;;;;;;36.23;11.70;;;;;;;-1.35;100.00;97131.97;10372047;28;20236;-62
2022/01/27 04:23:11;;;;;;;26.27;10.90;;;;;;;-1.40;100.00;97115.94;10371411;28;20304;-63
2022/01/27 04:28:14;;;;;;;34.50;12.20;;;;;;;-1.42;100.00;97110.88;10373933;28;20197;-61
2022/01/27 04:33:17;;;;;;;38.00;12.93;;;;;;;-1.37;100.00;97084.97;10374971;28;20213;-62
2022/01/27 04:38:25;;;;;;;34.57;10.73;;;;;;;-1.40;100.00;97077.41;10375536;28;20202;-62
2022/01/27 04:48:40;;;;;;;40.93;15.17;;;;;;;-1.40;100.00;97062.81;10374751;28;20193;-61
2022/01/27 04:53:50;;;;;;;20.27;8.17;;;;;;;-1.30;100.00;97040.91;10374150;28;20237;-61
2022/01/27 04:58:55;;;;;;;36.83;13.47;;;;;;;-1.31;100.00;97020.41;10374294;28;20189;-60
2022/01/27 05:04:07;;;;;;;26.67;9.87;;;;;;;-1.32;100.00;97029.88;10374350;28;20220;-62
2022/01/27 05:09:08;;;;;;;34.03;13.13;;;;;;;-1.34;100.00;97026.53;10374218;28;20568;-62
2022/01/27 05:14:15;;;;;;;24.73;11.33;;;;;;;-1.35;100.00;97008.63;10373988;28;20213;-62
2022/01/27 05:19:15;;;;;;;26.20;10.70;;;;;;;-1.23;100.00;97004.63;10373523;28;20364;-60
2022/01/27 05:24:17;;;;;;;14.97;5.13;;;;;;;-1.18;100.00;97005.19;10372584;28;20615;-60
2022/01/27 05:29:17;;;;;;;28.80;11.87;;;;;;;-1.24;100.00;97006.38;10373123;28;20240;-62
2022/01/27 05:34:18;;;;;;;28.13;11.50;;;;;;;-1.22;100.00;96983.16;10373223;28;20676;-61
2022/01/27 05:39:18;;;;;;;24.93;11.93;;;;;;;-1.18;100.00;96959.78;10372842;28;20693;-62
2022/01/27 05:44:18;;;;;;;27.23;12.50;;;;;;;-1.21;100.00;96975.38;10372793;28;20538;-62
2022/01/27 05:54:46;;;;;;;26.77;12.33;;;;;;;-1.18;100.00;96964.06;10411503;28;20627;-66
2022/01/27 05:59:46;;;;;;;27.93;10.73;;;;;;;-1.00;100.00;96947.72;10412984;28;20227;-64
2022/01/27 06:04:47;;;;;;;26.40;12.57;;;;;;;-1.05;100.00;96962.56;10412661;28;20212;-65
2022/01/27 06:09:47;;;;;;;25.00;10.70;;;;;;;-1.10;100.00;96985.09;10412536;28;20220;-63
2022/01/27 06:14:47;;;;;;;21.37;9.53;;;;;;;-0.92;100.00;96978.16;10412487;28;20192;-65
2022/01/27 06:19:48;;;;;;;23.10;11.70;;;;;;;-1.05;100.00;96969.44;10412113;28;20995;-65
2022/01/27 06:24:49;;;;;;;20.30;10.07;;;;;;;-1.03;100.00;96983.88;10411781;28;20184;-64
2022/01/27 06:29:49;;;;;;;22.93;10.40;;;;;;;-1.00;100.00;96972.59;10411988;28;20223;-64
2022/01/27 06:34:49;;;;;;;16.53;8.30;;;;;;;-0.88;100.00;96964.25;10411856;28;20200;-64
2022/01/27 06:39:50;;;;;;;19.67;11.07;;;;;;;-0.98;100.00;96953.63;10412853;28;20216;-64
2022/01/27 06:44:50;;;;;;;20.07;9.17;;;;;;;-0.94;100.00;96973.09;10411344;28;20189;-63
2022/01/27 06:49:51;;;;;;;18.90;9.37;;;;;;;-0.90;100.00;96973.81;10412202;28;20239;-64
2022/01/27 06:54:52;;;;;;;23.50;10.07;;;;;;;-0.92;100.00;96962.75;10411649;28;20206;-65
2022/01/27 06:59:52;;;;;;;19.80;9.73;;;;;;;-0.84;100.00;96952.06;10411369;28;20717;-63
2022/01/27 07:04:52;;;;;;;18.50;8.80;;;;;;;-0.99;100.00;96933.94;10411513;28;20200;-65
2022/01/27 07:09:53;;;;;;;15.90;7.67;;;;;;;-1.03;100.00;96922.16;10410979;28;20247;-65
2022/01/27 07:14:55;;;;;;;21.43;10.87;;;;;;;-1.11;100.00;96932.84;10411407;28;20188;-66
2022/01/27 07:19:55;;;;;;;22.90;10.83;;;;;;;-1.06;100.00;96947.19;10410646;28;20270;-65
2022/01/27 07:24:56;;;;;;;20.97;12.20;;;;;;;-1.08;100.00;96952.41;10410851;28;20748;-64
2022/01/27 07:29:56;;;;;;;20.03;11.20;;;;;;;-0.96;100.00;96954.38;10410778;28;20706;-64
2022/01/27 07:34:57;;;;;;;18.07;8.63;;;;;;;-1.08;100.00;96968.66;10408202;28;20740;-64
2022/01/27 07:39:57;;;;;;;22.60;12.43;;;;;;;-1.04;100.00;96978.78;10389171;28;20223;-64
2022/01/27 07:44:57;;;;;;;23.97;12.20;;;;;;;-1.05;100.00;96974.59;10380050;28;20717;-65
2022/01/27 07:49:58;;;;;;;22.13;11.23;;;;;;;-0.96;100.00;96982.66;10384365;28;20726;-65
2022/01/27 07:54:59;;;;;;;18.87;11.47;;;;;;;-0.97;100.00;96973.25;10377343;28;20672;-63
2022/01/27 07:59:59;;;;;;;22.63;12.23;;;;;;;-1.00;100.00;96970.84;10383539;28;20729;-65
2022/01/27 08:04:59;;;;;;;25.87;13.23;;;;;;;-1.13;100.00;96946.69;10416523;28;20690;-65
2022/01/27 08:10:00;;;;;;;25.93;13.40;;;;;;;-1.08;100.00;96940.38;10414817;28;20600;-65
2022/01/27 08:15:01;;;;;;;23.23;12.00;;;;;;;-0.95;100.00;96929.47;10415707;28;20686;-65
2022/01/27 08:20:01;;;;;;;23.57;11.90;;;;;;;-0.89;100.00;96931.72;10400885;28;20273;-63
2022/01/27 08:25:02;;;;;;;22.53;11.70;;;;;;;-0.85;100.00;96896.41;10392581;28;20246;-64
2022/01/27 08:30:05;;;;;;;24.90;13.97;;;;;;;-0.93;100.00;96876.25;10394602;28;20212;-64
2022/01/27 08:35:06;;;;;;;25.43;12.53;;;;;;;-0.95;100.00;96875.47;10401329;28;20280;-62
2022/01/27 08:40:09;;;;;;;17.43;8.63;;;;;;;-0.70;100.00;96845.84;10413915;28;20231;-63
2022/01/27 08:45:11;;;;;;;24.13;13.17;;;;;;;-0.32;100.00;96846.34;10414629;28;20192;-64
2022/01/27 08:50:14;;;;;;;16.83;8.97;;;;;;;-0.37;100.00;96850.91;10414482;28;20853;-63
2022/01/27 08:55:16;;;;;;;16.07;9.47;;;;;;;-0.08;100.00;96827.84;10413959;28;20203;-65
2022/01/27 09:00:19;;;;;;;17.27;10.20;;;;;;;-0.12;100.00;96829.78;10412842;28;20232;-63
2022/01/27 09:05:19;;;;;;;15.77;9.43;;;;;;;-0.16;100.00;96825.69;10412140;28;20835;-66
2022/01/27 09:10:20;;;;;;;15.43;9.00;;;;;;;-0.09;100.00;96808.13;10392242;28;20216;-66
2022/01/27 09:15:20;;;;;;;15.70;9.77;;;;;;;0.29;100.00;96821.41;10392043;28;20185;-66
2022/01/27 09:20:20;;;;;;;18.53;8.90;;;;;;;0.89;100.00;96815.22;10386605;28;20248;-66
2022/01/27 09:25:25;;;;;;;16.90;10.17;;;;;;;0.81;100.00;96814.88;10371630;28;20571;-64
2022/01/27 09:30:26;;;;;;;15.57;8.93;;;;;;;0.44;100.00;96839.44;10371927;28;20302;-64
2022/01/27 09:35:28;;;;;;;15.37;9.07;;;;;;;0.39;100.00;96823.44;10372127;28;20197;-62
2022/01/27 09:40:29;;;;;;;17.77;10.40;;;;;;;0.49;100.00;96825.38;10371622;28;20595;-62
2022/01/27 09:45:30;;;;;;;19.63;11.00;;;;;;;0.22;100.00;96799.47;10401271;28;20188;-65
2022/01/27 09:50:59;;;;;;;14.20;7.57;;;;;;;0.30;100.00;96794.69;10411703;28;20315;-63
2022/01/27 09:56:00;;;;;;;19.87;10.27;;;;;;;0.35;100.00;96779.81;10412072;28;20188;-62
2022/01/27 10:01:00;;;;;;;19.80;11.63;;;;;;;0.28;100.00;96781.06;10411373;28;20730;-64
2022/01/27 10:06:13;;;;;;;19.57;13.70;;;;;;;0.30;100.00;96755.22;10393467;28;20617;-64
2022/01/27 10:11:17;;;;;;;14.10;8.77;;;;;;;0.45;100.00;96759.44;10410882;28;20303;-64
2022/01/27 10:16:28;;;;;;;18.93;9.53;;;;;;;0.78;100.00;96757.47;10410028;28;20191;-63
2022/01/27 10:21:32;;;;;;;20.33;10.80;;;;;;;0.85;100.00;96732.97;10410297;28;20219;-62
2022/01/27 10:26:41;;;;;;;19.13;10.57;;;;;;;0.59;100.00;96740.56;10411047;28;20199;-61
2022/01/27 10:31:42;;;;;;;16.60;9.27;;;;;;;0.68;100.00;96754.66;10410419;28;20592;-62
2022/01/27 10:36:44;;;;;;;18.60;10.77;;;;;;;0.68;100.00;96747.72;10410562;28;20734;-63
2022/01/27 10:42:00;;;;;;;19.13;10.77;;;;;;;0.80;100.00;96727.28;10410767;28;20269;-63
2022/01/27 10:47:14;;;;;;;19.40;10.47;;;;;;;0.75;100.00;96766.25;10407313;28;20195;-64
2022/01/27 10:57:32;;;;;;;18.37;10.77;;;;;;;0.82;100.00;96758.97;10389489;28;20199;-64
2022/01/27 11:02:47;;;;;;;18.03;9.70;;;;;;;0.85;100.00;96751.84;10369427;28;20231;-63
2022/01/27 11:07:48;;;;;;;18.47;10.23;;;;;;;0.74;100.00;96774.09;10400663;28;20200;-63
2022/01/27 11:12:49;;;;;;;16.10;9.50;;;;;;;0.75;100.00;96765.41;10386402;28;20254;-65
2022/01/27 11:17:51;;;;;;;22.53;11.50;;;;;;;0.68;100.00;96752.88;10404050;28;20195;-64
2022/01/27 11:28:01;;;;;;;16.13;9.40;;;;;;;0.85;100.00;96731.22;10417942;28;20188;-64
2022/01/27 11:33:04;;;;;;;18.10;10.30;;;;;;;0.91;100.00;96724.84;10417299;28;20217;-64
2022/01/27 11:38:06;;;;;;;19.57;11.40;;;;;;;0.97;100.00;96726.22;10416803;28;20242;-62
2022/01/27 11:43:14;;;;;;;19.90;11.07;;;;;;;1.08;100.00;96725.56;10413482;28;20224;-63
2022/01/27 11:48:17;;;;;;;13.73;7.40;;;;;;;1.17;100.00;96723.19;10378443;28;20247;-64
2022/01/27 11:53:40;;;;;;;21.07;13.13;;;;;;;0.97;100.00;96726.22;10452695;22;20257;-64
2022/01/27 11:58:45;;;;;;;16.27;8.93;;;;;;;1.01;100.00;96725.94;10457444;28;20646;-63
2022/01/27 12:04:05;;;;;;;12.47;6.57;;;;;;;1.10;100.00;96734.00;10456880;28;20250;-61
2022/01/27 12:09:17;;;;;;;16.13;9.07;;;;;;;1.10;100.00;96718.53;10457293;28;20290;-64
2022/01/27 12:14:22;;;;;;;14.60;7.43;;;;;;;1.19;100.00;96747.16;10456588;28;20208;-63
2022/01/27 12:19:22;;;;;;;22.90;12.77;;;;;;;1.18;100.00;96705.97;10457029;28;20242;-62
2022/01/27 12:24:28;;;;;;;19.00;9.30;;;;;;;1.19;100.00;96718.75;10454565;28;20238;-62
2022/01/27 12:29:33;;;;;;;18.77;10.10;;;;;;;1.05;100.00;96721.41;10456407;28;20195;-60
2022/01/27 12:34:34;;;;;;;19.23;10.83;;;;;;;0.97;100.00;96701.25;10454457;28;20237;-62
2022/01/27 12:39:38;;;;;;;22.57;10.70;;;;;;;0.92;100.00;96687.00;10455778;28;20226;-62
2022/01/27 12:44:42;;;;;;;21.10;10.57;;;;;;;1.04;100.00;96683.63;10455848;28;20208;-62
2022/01/27 12:49:45;;;;;;;20.83;11.63;;;;;;;1.04;100.00;96684.47;10455377;28;20964;-60
2022/01/27 12:54:50;;;;;;;21.07;13.47;;;;;;;0.81;100.00;96680.78;10454209;28;20235;-62
2022/01/27 12:59:53;;;;;;;21.17;11.53;;;;;;;0.72;100.00;96683.94;10454863;28;20212;-62
2022/01/27 13:04:55;;;;;;;20.53;11.40;;;;;;;0.83;100.00;96696.16;10454860;28;20734;-61
2022/01/27 13:10:03;;;;;;;24.07;12.67;;;;;;;0.83;100.00;96691.81;10455891;28;20191;-62
2022/01/27 13:15:09;;;;;;;17.43;9.80;;;;;;;0.84;100.00;96693.47;10454059;28;20271;-63
2022/01/27 13:20:12;;;;;;;19.47;10.03;;;;;;;0.99;100.00;96680.53;10454230;28;20247;-63
2022/01/27 13:25:14;;;;;;;17.97;10.00;;;;;;;0.85;100.00;96687.38;10453921;28;20203;-62
2022/01/27 13:30:15;;;;;;;17.00;9.93;;;;;;;0.90;100.00;96676.78;10485990;28;20697;-63
2022/01/27 13:35:17;;;;;;;20.43;8.73;;;;;;;0.96;100.00;96671.22;10494637;28;20244;-63
2022/01/27 13:45:49;;;;;;;19.73;10.10;;;;;;;0.85;100.00;96651.28;10493961;28;20228;-63
2022/01/27 13:50:58;;;;;;;13.57;8.37;;;;;;;0.81;100.00;96649.84;10492839;28;20243;-62
2022/01/27 13:56:01;;;;;;;20.17;10.30;;;;;;;0.75;100.00;96651.97;10477971;28;20223;-63
2022/01/27 14:01:07;;;;;;;16.13;8.33;;;;;;;0.76;100.00;96657.03;10432446;28;20265;-62
2022/01/27 14:06:08;;;;;;;17.77;9.77;;;;;;;0.71;100.00;96659.06;10452760;28;20654;-62
2022/01/27 14:11:10;;;;;;;17.20;9.83;;;;;;;0.77;100.00;96660.44;10434684;28;20215;-63
2022/01/27 14:16:11;;;;;;;14.33;7.20;;;;;;;0.79;100.00;96643.13;10452095;28;20184;-61
2022/01/27 14:21:20;;;;;;;15.67;8.63;;;;;;;0.67;100.00;96650.72;10451150;28;20226;-60
2022/01/27 14:26:41;;;;;;;18.40;9.00;;;;;;;0.63;100.00;96640.66;10452174;28;20192;-60
2022/01/27 14:31:47;;;;;;;12.20;6.83;;;;;;;0.70;100.00;96650.53;10450296;28;20212;-60
2022/01/27 14:36:48;;;;;;;13.00;7.33;;;;;;;0.69;100.00;96641.13;10451901;28;20198;-60
2022/01/27 14:41:48;;;;;;;18.63;9.80;;;;;;;0.67;100.00;96640.41;10450411;28;20709;-59
2022/01/27 14:46:49;;;;;;;11.43;6.40;;;;;;;0.75;100.00;96644.22;10448863;28;20927;-59
2022/01/27 14:51:51;;;;;;;10.77;5.90;;;;;;;0.67;100.00;96649.88;10434000;28;20341;-60
2022/01/27 14:56:51;;;;;;;12.03;6.23;;;;;;;0.69;100.00;96635.97;10407654;28;20279;-59
2022/01/27 15:01:51;;;;;;;8.40;4.20;;;;;;;0.77;100.00;96642.41;10409410;28;20370;-61
2022/01/27 15:06:52;;;;;;;10.00;6.07;;;;;;;0.76;100.00;96641.53;10444351;28;20202;-61
2022/01/27 15:11:52;;;;;;;12.37;7.53;;;;;;;0.74;100.00;96650.31;10450706;28;20231;-60
2022/01/27 15:22:11;;;;;;;9.27;5.93;;;;;;;0.87;100.00;96653.75;10447711;28;20223;-61
2022/01/27 15:27:12;;;;;;;8.47;5.03;;;;;;;0.84;100.00;96651.38;10449153;28;20606;-60
2022/01/27 15:32:19;;;;;;;10.33;5.60;;;;;;;0.76;100.00;96661.34;10429813;28;20212;-57
2022/01/27 15:37:21;;;;;;;11.87;5.23;;;;;;;0.74;100.00;96645.16;10448730;28;20213;-58
2022/01/27 15:42:25;;;;;;;9.50;6.27;;;;;;;0.74;100.00;96650.31;10449950;28;20245;-62
2022/01/27 15:47:27;;;;;;;11.10;7.50;;;;;;;0.67;100.00;96639.56;10449862;28;20202;-62
2022/01/27 15:52:31;;;;;;;9.63;6.40;;;;;;;0.69;100.00;96632.56;10448862;28;20255;-61
2022/01/27 15:57:32;;;;;;;9.90;5.97;;;;;;;0.68;100.00;96636.88;10449563;28;20282;-62
2022/01/27 16:02:33;;;;;;;7.90;5.70;;;;;;;0.67;100.00;96614.63;10449274;28;20607;-62
2022/01/27 16:07:34;;;;;;;46.07;17.80;;;;;;;0.68;100.00;96610.28;10447477;28;20540;-62
2022/01/27 16:12:34;;;;;;;10.53;6.33;;;;;;;0.69;100.00;96617.91;10456034;28;20594;-62
2022/01/27 16:17:35;;;;;;;7.47;3.73;;;;;;;0.74;100.00;96614.22;10455764;28;20215;-62
2022/01/27 16:22:35;;;;;;;8.80;6.93;;;;;;;0.75;100.00;96615.84;10456591;28;20586;-62
2022/01/27 16:27:36;;;;;;;8.70;5.37;;;;;;;0.82;100.00;96627.44;10456221;28;20230;-62
2022/01/27 16:32:37;;;;;;;6.60;4.53;;;;;;;0.90;100.00;96604.56;10454837;28;20297;-61
2022/01/27 16:37:38;;;;;;;5.50;2.80;;;;;;;1.05;100.00;96607.91;10454918;28;20226;-62
2022/01/27 16:42:38;;;;;;;7.43;4.43;;;;;;;1.12;100.00;96621.22;10454542;28;20216;-59
2022/01/27 16:47:39;;;;;;;6.20;4.13;;;;;;;1.18;100.00;96615.66;10455431;28;20213;-61
2022/01/27 16:52:39;;;;;;;5.20;4.10;;;;;;;1.18;100.00;96611.34;10454201;28;20231;-61
2022/01/27 16:57:40;;;;;;;6.33;4.87;;;;;;;1.21;100.00;96608.56;10455160;28;20192;-59
2022/01/27 17:02:40;;;;;;;5.27;3.40;;;;;;;1.30;100.00;96612.25;10453318;28;20262;-62
2022/01/27 17:07:41;;;;;;;5.07;4.00;;;;;;;1.34;100.00;96593.06;10452947;28;20712;-60
2022/01/27 17:12:41;;;;;;;5.00;4.30;;;;;;;1.50;100.00;96590.31;10456675;28;20237;-56
2022/01/27 17:17:46;;;;;;;4.27;2.97;;;;;;;1.57;100.00;96603.63;10451178;28;20199;-59
2022/01/27 17:22:46;;;;;;;5.93;2.70;;;;;;;1.58;100.00;96592.38;10454529;28;20274;-57
2022/01/27 17:27:46;;;;;;;4.40;2.80;;;;;;;1.63;100.00;96598.03;10455518;28;20211;-59
2022/01/27 17:32:47;;;;;;;3.60;2.97;;;;;;;1.65;100.00;96601.34;10454840;28;20216;-58
2022/01/27 17:37:48;;;;;;;2.50;2.30;;;;;;;1.68;100.00;96579.66;10456073;28;20191;-57
2022/01/27 17:42:52;;;;;;;3.73;2.90;;;;;;;1.68;100.00;96579.66;10454611;28;20613;-56
2022/01/27 17:47:56;;;;;;;4.07;2.67;;;;;;;1.72;100.00;96568.19;10454516;28;20192;-59
2022/01/27 17:52:56;;;;;;;2.80;1.90;;;;;;;1.72;100.00;96563.84;10481473;22;20296;-64
2022/01/27 17:57:57;;;;;;;3.23;2.40;;;;;;;1.71;100.00;96551.03;10495148;28;20333;-64
2022/01/27 18:02:57;;;;;;;8.50;5.10;;;;;;;1.67;100.00;96578.84;10494738;28;20231;-63
2022/01/27 18:07:58;;;;;;;4.83;4.00;;;;;;;1.73;100.00;96569.81;10493650;28;20277;-64
2022/01/27 18:12:58;;;;;;;23.17;8.83;;;;;;;1.76;100.00;96585.97;10490635;28;20244;-63
2022/01/27 18:17:58;;;;;;;9.20;5.50;;;;;;;1.71;100.00;96566.53;10494428;28;20533;-63
2022/01/27 18:22:59;;;;;;;7.27;4.70;;;;;;;1.74;100.00;96576.66;10493781;28;20267;-62
2022/01/27 18:27:59;;;;;;;6.20;4.87;;;;;;;1.80;100.00;96583.16;10494129;28;20191;-62
2022/01/27 18:33:00;;;;;;;4.23;3.23;;;;;;;1.72;100.00;96563.84;10492314;28;20203;-63
2022/01/27 18:38:02;;;;;;;4.37;2.90;;;;;;;1.59;100.00;96550.13;10490928;28;20183;-61
2022/01/27 18:43:02;;;;;;;4.57;3.57;;;;;;;1.62;100.00;96549.09;10490900;28;20212;-60
2022/01/27 18:48:02;;;;;;;5.43;3.33;;;;;;;1.60;100.00;96546.63;10491071;28;20211;-63
2022/01/27 18:53:03;;;;;;;3.10;2.37;;;;;;;1.71;100.00;96532.97;10490245;28;20705;-63
2022/01/27 18:58:06;;;;;;;3.57;3.10;;;;;;;1.70;100.00;96527.00;10492211;28;20191;-63
2022/01/27 19:03:06;;;;;;;6.80;3.97;;;;;;;1.62;100.00;96518.91;10493301;28;20215;-63
2022/01/27 19:08:06;;;;;;;5.60;2.93;;;;;;;1.73;100.00;96525.94;10493568;28;20746;-63
2022/01/27 19:13:07;;;;;;;5.13;3.57;;;;;;;1.47;100.00;96535.47;10493070;28;20217;-64
2022/01/27 19:18:09;;;;;;;5.50;4.30;;;;;;;1.29;100.00;96537.53;10493368;28;20187;-65
2022/01/27 19:23:11;;;;;;;6.30;4.37;;;;;;;1.22;100.00;96524.22;10492937;28;20715;-64
2022/01/27 19:28:11;;;;;;;5.17;3.87;;;;;;;1.32;100.00;96525.25;10493231;28;20225;-64
2022/01/27 19:33:12;;;;;;;5.50;3.70;;;;;;;1.49;100.00;96524.13;10493182;28;20693;-64
2022/01/27 19:38:12;;;;;;;4.40;3.30;;;;;;;1.53;100.00;96516.97;10492689;28;20561;-64
2022/01/27 19:43:13;;;;;;;5.03;3.87;;;;;;;1.50;100.00;96517.19;10493830;28;20281;-63
2022/01/27 19:48:14;;;;;;;4.80;3.77;;;;;;;1.55;100.00;96515.94;10500382;28;20191;-64
2022/01/27 19:53:15;;;;;;;5.30;3.70;;;;;;;1.53;100.00;96523.00;10499649;28;20251;-64
2022/01/27 19:58:16;;;;;;;3.50;2.73;;;;;;;1.31;100.00;96515.88;10500253;28;20229;-64
2022/01/27 20:03:17;;;;;;;5.00;3.67;;;;;;;1.11;100.00;96522.38;10499328;28;20222;-64
2022/01/27 20:08:17;;;;;;;4.60;3.90;;;;;;;1.15;100.00;96521.25;10499792;28;20194;-65
2022/01/27 20:13:18;;;;;;;4.87;4.30;;;;;;;1.24;100.00;96514.63;10499168;28;20343;-64
2022/01/27 20:18:20;;;;;;;6.60;5.10;;;;;;;1.28;100.00;96531.56;10499371;28;20198;-64
2022/01/27 20:23:24;;;;;;;5.93;5.07;;;;;;;1.22;100.00;96521.66;10498987;28;20223;-64
2022/01/27 20:28:25;;;;;;;7.23;5.03;;;;;;;1.19;100.00;96520.09;10498826;28;20618;-64
2022/01/27 20:33:25;;;;;;;7.57;5.57;;;;;;;1.18;100.00;96535.66;10499150;28;20269;-65
2022/01/27 20:38:26;;;;;;;8.57;5.50;;;;;;;1.01;100.00;96537.66;10498661;28;20208;-64
2022/01/27 20:43:27;;;;;;;7.63;5.87;;;;;;;0.93;100.00;96547.63;10498729;28;20222;-64
2022/01/27 20:48:28;;;;;;;9.47;6.23;;;;;;;0.83;100.00;96541.44;10497276;28;20199;-64
2022/01/27 20:53:28;;;;;;;5.53;4.50;;;;;;;0.93;100.00;96541.66;10492672;28;20231;-63
2022/01/27 20:58:29;;;;;;;9.70;6.33;;;;;;;0.90;100.00;96540.09;10494535;28;20191;-62
2022/01/27 21:03:29;;;;;;;6.20;5.27;;;;;;;1.00;100.00;96542.91;10494248;28;20304;-63
2022/01/27 21:08:30;;;;;;;8.17;5.53;;;;;;;1.07;100.00;96531.22;10496196;28;20195;-64
2022/01/27 21:13:30;;;;;;;6.30;4.90;;;;;;;1.06;100.00;96527.84;10497014;28;20207;-64
2022/01/27 21:18:31;;;;;;;7.30;5.63;;;;;;;1.08;100.00;96550.13;10497206;28;20195;-64
2022/01/27 21:23:31;;;;;;;7.03;4.53;;;;;;;1.01;100.00;96542.81;10496743;28;20596;-62
2022/01/27 21:28:32;;;;;;;5.90;4.50;;;;;;;0.91;100.00;96559.81;10497015;28;20220;-64
2022/01/27 21:33:35;;;;;;;6.77;4.37;;;;;;;0.79;100.00;96547.72;10497048;28;20214;-64
2022/01/27 21:38:35;;;;;;;5.50;3.63;;;;;;;0.79;100.00;96555.44;10496753;28;20240;-64
2022/01/27 21:43:36;;;;;;;7.30;3.90;;;;;;;0.68;100.00;96543.25;10496539;28;20255;-64
2022/01/27 21:48:37;;;;;;;5.70;4.43;;;;;;;0.76;100.00;96556.47;10496449;28;20202;-64
2022/01/27 21:53:38;;;;;;;6.50;4.70;;;;;;;0.44;100.00;96568.84;10495160;28;20597;-64
2022/01/27 21:58:39;;;;;;;5.93;4.77;;;;;;;0.45;100.00;96588.53;10496140;28;20192;-63
2022/01/27 22:03:40;;;;;;;8.93;5.77;;;;;;;0.62;100.00;96592.63;10495118;28;20254;-64
2022/01/27 22:08:40;;;;;;;7.30;5.33;;;;;;;0.74;100.00;96593.59;10495241;28;20293;-63
2022/01/27 22:13:40;;;;;;;7.80;5.20;;;;;;;0.76;100.00;96578.84;10495417;28;20221;-64
2022/01/27 22:18:41;;;;;;;5.87;4.20;;;;;;;0.87;100.00;96584.13;10495178;28;20672;-63
2022/01/27 22:23:41;;;;;;;7.63;4.47;;;;;;;0.84;100.00;96574.00;10494826;28;20225;-63
2022/01/27 22:28:44;;;;;;;10.10;4.33;;;;;;;0.81;100.00;96580.22;10494462;28;20187;-63
2022/01/27 22:33:44;;;;;;;9.30;4.93;;;;;;;0.86;100.00;96579.91;10494510;28;20708;-64
2022/01/27 22:38:44;;;;;;;8.63;4.50;;;;;;;0.96;100.00;96564.66;10494395;28;20191;-64
2022/01/27 22:43:45;;;;;;;7.43;4.97;;;;;;;1.04;100.00;96570.13;10494224;28;20226;-63
2022/01/27 22:48:45;;;;;;;5.77;4.27;;;;;;;1.16;100.00;96560.75;10494461;28;20190;-62
2022/01/27 22:53:45;;;;;;;4.90;3.40;;;;;;;1.21;100.00;96577.59;10493217;28;20250;-61
2022/01/27 22:58:46;;;;;;;6.70;3.83;;;;;;;1.22;100.00;96573.25;10494434;28;20205;-63
2022/01/27 23:03:46;;;;;;;4.87;3.70;;;;;;;1.15;100.00;96557.38;10493221;28;20317;-63
2022/01/27 23:08:47;;;;;;;5.43;4.03;;;;;;;1.11;100.00;96573.97;10493469;28;20206;-63
2022/01/27 23:13:49;;;;;;;4.97;3.90;;;;;;;1.18;100.00;96569.22;10493391;28;20576;-63
2022/01/27 23:24:28;;;;;;;7.27;3.20;;;;;;;1.14;100.00;96585.84;10402390;28;20242;-63
2022/01/27 23:29:34;;;;;;;10.90;3.53;;;;;;;1.26;100.00;96574.72;10501280;28;20191;-64
2022/01/27 23:34:34;;;;;;;8.30;3.00;;;;;;;1.32;100.00;96582.03;10501419;28;20207;-63
2022/01/27 23:45:42;;;;;;;3.67;2.07;;;;;;;1.31;100.00;96590.69;10500698;28;20721;-63
2022/01/27 23:50:23;;;;;;;5.20;2.03;;;;;;;1.32;100.00;96602.69;10489370;28;20205;-63
2022/01/27 23:55:46;;;;;;;5.93;2.30;;;;;;;1.29;100.00;96609.78;10531747;22;20253;-60
